Detall de PIREP

Printer-friendly versionPDF version

[2014/10/23 09:45:00]
Flight IATA:CT3409
Pilot Number:042
Company ICAO:CAT
Aircraft Type:B463/A
PAX:32
Aircraft Registration:PAX
Departing Airport: LSGG
Destination Airport: LEBL
Alternate Airport:LEGE
Online: VATSIM
Route:BALSI UN852 DIVKO UN975 BISBA
Flight Level:F330
No Slew and time accel
No pause
Crash detect
Detect pilot in Cockpit between each 30 and 45 minutes
09:45 Zero fuel Weight: 80443 Lbs, Fuel Weight: 20606 Lbs
09:45 VATSIM:LSGG 230820Z VRB01KT 9999 FEW015 BKN090 07/06 Q1026 NOSIG
09:45 VATSIM:LEBL 230830Z 33009KT 240V360 9999 FEW025 17/06 Q1021 NOSIG
09:52 Parking Brakes off
09:57 Take-off
09:57 Take off Weight: 100283 Lbs
09:57 Wind: 358º @ 001 Knots Heading: 045º
09:57 POS N46º 14´ 18´´ E006º 06´ 34´´
09:57 Flaps:2 at 154 Knots
09:57 Gear Up: 153 Knots
09:57 Flaps:1 at 144 Knots
09:58 Flaps:0 at 196 Knots
10:12 Wind:346º@070 Knots Heading: 196º Ground Speed: 434 Knots Altitude 29530 ft
10:15 TOC
10:15 Fuel Weight: 17015 Lb
10:27 Wind:343º@079 Knots Heading: 207º Ground Speed: 470 Knots Altitude 32696 ft
10:35 TOD
10:35 Fuel Weight: 15647 Lb
10:35 TOC
10:35 Fuel Weight: 15614 Lb
10:38 TOD
10:38 Fuel Weight: 15434 Lb
10:42 Wind:341º@045 Knots Heading: 229º Ground Speed: 371 Knots Altitude 25580 ft
10:55 Flaps:1 at 187 Knots
10:57 Wind:336º@026 Knots Heading: 301º Ground Speed: 178 Knots Altitude 6617 ft
11:03 Gear Down: 175 Knots
11:03 Flaps:2 at 177 Knots
11:03 Flaps:3 at 175 Knots
11:07 TouchDown:Rate -62 ft/min Speed: 115 Knots
11:07 VATSIM:LEBL 231000Z 32005KT 240V350 CAVOK 20/07 Q1020 NOSIG
11:07 Land
11:07 Wind:314º@005 Knots
11:07 Heading: 243º
11:07 Flight Duration: 01:10
11:07 Landing Weight: 94886 Lbs
11:07 POS N41º 18´ 04´´ E002º 05´ 24´´
11:09 Parking brakes on
11:09 Block to Block Duration: 01:17
11:09 Final Fuel: 14201 Lbls
11:09 Spent Fuel: 6404 Lbls
11:09 Flight Length: 407 NM
11:09 TOD Land Length: 122 NM

Exportar CSV

Powered by Drupal - Modified by Danger4k